sensor_id;sensor_type;location;lat;lon;timestamp;temperature;humidity
41294;DHT22;27037;52.010;4.446;2022-08-18T00:04:32;19.10;99.90
41294;DHT22;27037;52.010;4.446;2022-08-18T00:06:57;19.10;99.90
41294;DHT22;27037;52.010;4.446;2022-08-18T00:09:23;19.10;99.90
41294;DHT22;27037;52.010;4.446;2022-08-18T00:11:49;19.10;99.90
41294;DHT22;27037;52.010;4.446;2022-08-18T00:14:16;19.10;99.90
41294;DHT22;27037;52.010;4.446;2022-08-18T00:16:43;19.20;99.90
41294;DHT22;27037;52.010;4.446;2022-08-18T00:19:08;19.10;99.90
41294;DHT22;27037;52.010;4.446;2022-08-18T00:21:34;19.10;99.90
41294;DHT22;27037;52.010;4.446;2022-08-18T00:24:00;19.10;99.90
41294;DHT22;27037;52.010;4.446;2022-08-18T00:26:26;19.10;99.90
41294;DHT22;27037;52.010;4.446;2022-08-18T00:28:52;19.10;99.90
41294;DHT22;27037;52.010;4.446;2022-08-18T00:31:17;19.10;99.90
41294;DHT22;27037;52.010;4.446;2022-08-18T00:33:43;19.20;99.90
41294;DHT22;27037;52.010;4.446;2022-08-18T00:36:10;19.10;99.90
41294;DHT22;27037;52.010;4.446;2022-08-18T00:38:36;19.10;99.90
41294;DHT22;27037;52.010;4.446;2022-08-18T00:41:03;19.10;99.90
41294;DHT22;27037;52.010;4.446;2022-08-18T00:43:41;19.10;99.90
41294;DHT22;27037;52.010;4.446;2022-08-18T00:46:11;19.10;99.90
41294;DHT22;27037;52.010;4.446;2022-08-18T00:48:37;19.10;99.90
41294;DHT22;27037;52.010;4.446;2022-08-18T00:51:09;19.10;99.90
41294;DHT22;27037;52.010;4.446;2022-08-18T00:53:43;19.10;99.90
41294;DHT22;27037;52.010;4.446;2022-08-18T00:56:14;19.10;99.90
41294;DHT22;27037;52.010;4.446;2022-08-18T00:59:06;19.10;99.90
41294;DHT22;27037;52.010;4.446;2022-08-18T01:01:33;19.10;99.90
41294;DHT22;27037;52.010;4.446;2022-08-18T01:04:08;19.00;99.90
41294;DHT22;27037;52.010;4.446;2022-08-18T01:06:48;19.00;99.90
41294;DHT22;27037;52.010;4.446;2022-08-18T01:09:15;19.00;99.90
41294;DHT22;27037;52.010;4.446;2022-08-18T01:11:42;19.00;99.90
41294;DHT22;27037;52.010;4.446;2022-08-18T01:14:10;19.00;99.90
41294;DHT22;27037;52.010;4.446;2022-08-18T01:16:41;19.00;99.90
41294;DHT22;27037;52.010;4.446;2022-08-18T01:19:26;19.00;99.90
41294;DHT22;27037;52.010;4.446;2022-08-18T01:22:32;18.90;99.90
41294;DHT22;27037;52.010;4.446;2022-08-18T01:25:00;18.90;99.90
41294;DHT22;27037;52.010;4.446;2022-08-18T01:27:45;18.90;99.90
41294;DHT22;27037;52.010;4.446;2022-08-18T01:30:15;18.90;99.90
41294;DHT22;27037;52.010;4.446;2022-08-18T01:32:42;18.90;99.90
41294;DHT22;27037;52.010;4.446;2022-08-18T01:35:11;18.80;99.90
41294;DHT22;27037;52.010;4.446;2022-08-18T01:37:37;18.80;99.90
41294;DHT22;27037;52.010;4.446;2022-08-18T01:40:05;18.80;99.90
41294;DHT22;27037;52.010;4.446;2022-08-18T01:42:32;18.80;99.90
41294;DHT22;27037;52.010;4.446;2022-08-18T01:44:58;18.80;99.90
41294;DHT22;27037;52.010;4.446;2022-08-18T01:47:24;18.70;99.90
41294;DHT22;27037;52.010;4.446;2022-08-18T01:49:49;18.70;99.90
41294;DHT22;27037;52.010;4.446;2022-08-18T01:52:19;18.70;99.90
41294;DHT22;27037;52.010;4.446;2022-08-18T01:54:47;18.70;99.90
41294;DHT22;27037;52.010;4.446;2022-08-18T01:57:14;18.60;99.90
41294;DHT22;27037;52.010;4.446;2022-08-18T01:59:43;18.60;99.90
41294;DHT22;27037;52.010;4.446;2022-08-18T02:02:13;18.60;99.90
41294;DHT22;27037;52.010;4.446;2022-08-18T02:04:40;18.60;99.90
41294;DHT22;27037;52.010;4.446;2022-08-18T02:07:09;18.60;99.90
41294;DHT22;27037;52.010;4.446;2022-08-18T02:09:36;18.50;99.90
41294;DHT22;27037;52.010;4.446;2022-08-18T02:12:02;18.50;99.90
41294;DHT22;27037;52.010;4.446;2022-08-18T02:14:28;18.50;99.90
41294;DHT22;27037;52.010;4.446;2022-08-18T02:16:57;18.50;99.90
41294;DHT22;27037;52.010;4.446;2022-08-18T02:19:23;18.50;99.90
41294;DHT22;27037;52.010;4.446;2022-08-18T02:21:50;18.50;99.90
41294;DHT22;27037;52.010;4.446;2022-08-18T02:24:17;18.50;99.90
41294;DHT22;27037;52.010;4.446;2022-08-18T02:26:43;18.50;99.90
41294;DHT22;27037;52.010;4.446;2022-08-18T02:29:09;18.50;99.90
41294;DHT22;27037;52.010;4.446;2022-08-18T02:31:35;18.50;99.90
41294;DHT22;27037;52.010;4.446;2022-08-18T02:34:00;18.50;99.90
41294;DHT22;27037;52.010;4.446;2022-08-18T02:36:26;18.50;99.90
41294;DHT22;27037;52.010;4.446;2022-08-18T02:38:52;18.50;99.90
41294;DHT22;27037;52.010;4.446;2022-08-18T02:41:18;18.40;99.90
41294;DHT22;27037;52.010;4.446;2022-08-18T02:43:45;18.40;99.90
41294;DHT22;27037;52.010;4.446;2022-08-18T02:46:13;18.40;99.90
41294;DHT22;27037;52.010;4.446;2022-08-18T02:48:38;18.40;99.90
41294;DHT22;27037;52.010;4.446;2022-08-18T02:51:06;18.30;99.90
41294;DHT22;27037;52.010;4.446;2022-08-18T02:53:33;18.40;99.90
41294;DHT22;27037;52.010;4.446;2022-08-18T02:56:06;18.30;99.90
41294;DHT22;27037;52.010;4.446;2022-08-18T02:58:56;18.30;99.90
41294;DHT22;27037;52.010;4.446;2022-08-18T03:01:24;18.30;99.90
41294;DHT22;27037;52.010;4.446;2022-08-18T03:03:50;18.30;99.90
41294;DHT22;27037;52.010;4.446;2022-08-18T03:06:18;18.30;99.90
41294;DHT22;27037;52.010;4.446;2022-08-18T03:08:44;18.20;99.90
41294;DHT22;27037;52.010;4.446;2022-08-18T03:11:18;18.30;99.90
41294;DHT22;27037;52.010;4.446;2022-08-18T03:13:44;18.30;99.90
41294;DHT22;27037;52.010;4.446;2022-08-18T03:16:11;18.30;99.90
41294;DHT22;27037;52.010;4.446;2022-08-18T03:18:36;18.30;99.90
41294;DHT22;27037;52.010;4.446;2022-08-18T03:21:12;18.30;99.90
41294;DHT22;27037;52.010;4.446;2022-08-18T03:23:39;18.30;99.90
41294;DHT22;27037;52.010;4.446;2022-08-18T03:26:07;18.40;99.90
41294;DHT22;27037;52.010;4.446;2022-08-18T03:28:37;18.40;99.90
41294;DHT22;27037;52.010;4.446;2022-08-18T03:31:03;18.40;99.90
41294;DHT22;27037;52.010;4.446;2022-08-18T03:33:29;18.50;99.90
41294;DHT22;27037;52.010;4.446;2022-08-18T03:35:54;18.40;99.90
41294;DHT22;27037;52.010;4.446;2022-08-18T03:38:20;18.50;99.90
41294;DHT22;27037;52.010;4.446;2022-08-18T03:40:50;18.50;99.90
41294;DHT22;27037;52.010;4.446;2022-08-18T03:43:16;18.50;99.90
41294;DHT22;27037;52.010;4.446;2022-08-18T03:45:42;18.50;99.90
41294;DHT22;27037;52.010;4.446;2022-08-18T03:48:07;18.50;99.90
41294;DHT22;27037;52.010;4.446;2022-08-18T03:50:35;18.50;99.90
41294;DHT22;27037;52.010;4.446;2022-08-18T03:53:00;18.50;99.90
41294;DHT22;27037;52.010;4.446;2022-08-18T03:55:26;18.50;99.90
41294;DHT22;27037;52.010;4.446;2022-08-18T03:57:57;18.50;99.90
41294;DHT22;27037;52.010;4.446;2022-08-18T04:00:23;18.50;99.90
41294;DHT22;27037;52.010;4.446;2022-08-18T04:02:51;18.50;99.90
41294;DHT22;27037;52.010;4.446;2022-08-18T04:05:16;18.60;99.90
41294;DHT22;27037;52.010;4.446;2022-08-18T04:07:42;18.60;99.90
41294;DHT22;27037;52.010;4.446;2022-08-18T04:10:08;18.60;99.90
41294;DHT22;27037;52.010;4.446;2022-08-18T04:12:34;18.60;99.90
41294;DHT22;27037;52.010;4.446;2022-08-18T04:15:01;18.60;99.90
41294;DHT22;27037;52.010;4.446;2022-08-18T04:17:27;18.70;99.90
41294;DHT22;27037;52.010;4.446;2022-08-18T04:19:54;18.70;99.90
41294;DHT22;27037;52.010;4.446;2022-08-18T04:22:20;18.70;99.90
41294;DHT22;27037;52.010;4.446;2022-08-18T04:24:47;18.70;99.90
41294;DHT22;27037;52.010;4.446;2022-08-18T04:27:14;18.70;99.90
41294;DHT22;27037;52.010;4.446;2022-08-18T04:29:40;18.70;99.90
41294;DHT22;27037;52.010;4.446;2022-08-18T04:32:06;18.70;99.90
41294;DHT22;27037;52.010;4.446;2022-08-18T04:34:32;18.70;99.90
41294;DHT22;27037;52.010;4.446;2022-08-18T04:36:59;18.70;99.90
41294;DHT22;27037;52.010;4.446;2022-08-18T04:39:24;18.70;99.90
41294;DHT22;27037;52.010;4.446;2022-08-18T04:41:50;18.60;99.90
41294;DHT22;27037;52.010;4.446;2022-08-18T04:44:17;18.60;99.90
41294;DHT22;27037;52.010;4.446;2022-08-18T04:46:45;18.60;99.90
41294;DHT22;27037;52.010;4.446;2022-08-18T04:49:15;18.60;99.90
41294;DHT22;27037;52.010;4.446;2022-08-18T04:51:47;18.60;99.90
41294;DHT22;27037;52.010;4.446;2022-08-18T04:54:35;18.60;99.90
41294;DHT22;27037;52.010;4.446;2022-08-18T04:57:17;18.50;99.90
41294;DHT22;27037;52.010;4.446;2022-08-18T04:59:45;18.50;99.90
41294;DHT22;27037;52.010;4.446;2022-08-18T05:02:12;18.50;99.90
41294;DHT22;27037;52.010;4.446;2022-08-18T05:04:40;18.50;99.90
41294;DHT22;27037;52.010;4.446;2022-08-18T05:07:08;18.50;99.90
41294;DHT22;27037;52.010;4.446;2022-08-18T05:09:35;18.50;99.90
41294;DHT22;27037;52.010;4.446;2022-08-18T05:12:02;18.40;99.90
41294;DHT22;27037;52.010;4.446;2022-08-18T05:14:28;18.40;99.90
41294;DHT22;27037;52.010;4.446;2022-08-18T05:16:57;18.40;99.90
41294;DHT22;27037;52.010;4.446;2022-08-18T05:19:23;18.40;99.90
41294;DHT22;27037;52.010;4.446;2022-08-18T05:21:52;18.30;99.90
41294;DHT22;27037;52.010;4.446;2022-08-18T05:24:19;18.30;99.90
41294;DHT22;27037;52.010;4.446;2022-08-18T05:26:46;18.40;99.90
41294;DHT22;27037;52.010;4.446;2022-08-18T05:29:13;18.40;99.90
41294;DHT22;27037;52.010;4.446;2022-08-18T05:31:38;18.30;99.90
41294;DHT22;27037;52.010;4.446;2022-08-18T05:34:04;18.30;99.90
41294;DHT22;27037;52.010;4.446;2022-08-18T05:36:46;18.40;99.90
41294;DHT22;27037;52.010;4.446;2022-08-18T05:44:18;18.40;99.90
41294;DHT22;27037;52.010;4.446;2022-08-18T05:49:13;18.50;99.90
41294;DHT22;27037;52.010;4.446;2022-08-18T05:51:44;18.50;99.90
41294;DHT22;27037;52.010;4.446;2022-08-18T05:54:11;18.50;99.90
41294;DHT22;27037;52.010;4.446;2022-08-18T05:57:00;18.50;99.90
41294;DHT22;27037;52.010;4.446;2022-08-18T05:59:32;18.60;99.90
41294;DHT22;27037;52.010;4.446;2022-08-18T06:04:42;18.60;99.90
41294;DHT22;27037;52.010;4.446;2022-08-18T06:07:14;18.70;99.90
41294;DHT22;27037;52.010;4.446;2022-08-18T06:09:52;18.70;99.90
41294;DHT22;27037;52.010;4.446;2022-08-18T06:12:25;18.80;99.90
41294;DHT22;27037;52.010;4.446;2022-08-18T06:15:18;18.90;99.90
41294;DHT22;27037;52.010;4.446;2022-08-18T06:23:14;19.00;99.90
41294;DHT22;27037;52.010;4.446;2022-08-18T06:26:31;19.10;99.90
41294;DHT22;27037;52.010;4.446;2022-08-18T06:31:33;19.10;99.90
41294;DHT22;27037;52.010;4.446;2022-08-18T06:36:57;19.20;99.90
41294;DHT22;27037;52.010;4.446;2022-08-18T06:39:34;19.20;99.90
41294;DHT22;27037;52.010;4.446;2022-08-18T06:42:03;19.30;99.90
41294;DHT22;27037;52.010;4.446;2022-08-18T06:44:52;19.40;99.90
41294;DHT22;27037;52.010;4.446;2022-08-18T06:50:20;19.50;99.90
41294;DHT22;27037;52.010;4.446;2022-08-18T06:52:59;19.50;99.90
41294;DHT22;27037;52.010;4.446;2022-08-18T06:55:40;19.70;99.90
41294;DHT22;27037;52.010;4.446;2022-08-18T07:00:42;19.80;99.90
41294;DHT22;27037;52.010;4.446;2022-08-18T07:03:13;19.90;99.90
41294;DHT22;27037;52.010;4.446;2022-08-18T07:08:41;20.10;99.90
41294;DHT22;27037;52.010;4.446;2022-08-18T07:11:22;20.20;99.90
41294;DHT22;27037;52.010;4.446;2022-08-18T07:13:56;20.20;99.90
41294;DHT22;27037;52.010;4.446;2022-08-18T07:16:23;20.30;99.90
41294;DHT22;27037;52.010;4.446;2022-08-18T07:18:50;20.30;99.90
41294;DHT22;27037;52.010;4.446;2022-08-18T07:21:28;20.40;99.90
41294;DHT22;27037;52.010;4.446;2022-08-18T07:24:07;20.40;99.90
41294;DHT22;27037;52.010;4.446;2022-08-18T07:26:59;20.50;99.90
41294;DHT22;27037;52.010;4.446;2022-08-18T07:29:26;20.60;99.90
41294;DHT22;27037;52.010;4.446;2022-08-18T07:31:54;20.70;99.90
41294;DHT22;27037;52.010;4.446;2022-08-18T07:34:31;20.80;99.90
41294;DHT22;27037;52.010;4.446;2022-08-18T07:37:31;20.90;99.90
41294;DHT22;27037;52.010;4.446;2022-08-18T07:40:23;21.00;99.90
41294;DHT22;27037;52.010;4.446;2022-08-18T07:43:02;21.20;99.90
41294;DHT22;27037;52.010;4.446;2022-08-18T07:45:35;21.30;99.90
41294;DHT22;27037;52.010;4.446;2022-08-18T07:48:20;21.30;99.90
41294;DHT22;27037;52.010;4.446;2022-08-18T07:53:36;21.30;99.90
41294;DHT22;27037;52.010;4.446;2022-08-18T07:56:31;21.30;99.90
41294;DHT22;27037;52.010;4.446;2022-08-18T08:02:12;21.30;99.90
41294;DHT22;27037;52.010;4.446;2022-08-18T08:07:55;21.40;99.90
41294;DHT22;27037;52.010;4.446;2022-08-18T08:10:32;21.40;99.90
41294;DHT22;27037;52.010;4.446;2022-08-18T08:13:31;21.50;99.90
41294;DHT22;27037;52.010;4.446;2022-08-18T08:19:43;21.60;99.90
41294;DHT22;27037;52.010;4.446;2022-08-18T08:22:17;21.60;99.90
41294;DHT22;27037;52.010;4.446;2022-08-18T08:30:11;21.80;99.90
41294;DHT22;27037;52.010;4.446;2022-08-18T08:36:38;21.90;99.90
41294;DHT22;27037;52.010;4.446;2022-08-18T08:38:47;22.00;99.90
41294;DHT22;27037;52.010;4.446;2022-08-18T08:41:42;22.10;99.90
41294;DHT22;27037;52.010;4.446;2022-08-18T08:44:20;22.00;99.90
41294;DHT22;27037;52.010;4.446;2022-08-18T08:49:35;22.10;99.90
41294;DHT22;27037;52.010;4.446;2022-08-18T08:52:09;22.20;99.90
41294;DHT22;27037;52.010;4.446;2022-08-18T08:55:12;22.40;99.90
41294;DHT22;27037;52.010;4.446;2022-08-18T08:57:49;22.70;99.90
41294;DHT22;27037;52.010;4.446;2022-08-18T09:00:16;22.90;99.90
41294;DHT22;27037;52.010;4.446;2022-08-18T09:05:17;23.20;99.90
41294;DHT22;27037;52.010;4.446;2022-08-18T09:10:40;23.30;99.90
41294;DHT22;27037;52.010;4.446;2022-08-18T09:21:45;23.50;99.90
41294;DHT22;27037;52.010;4.446;2022-08-18T09:29:23;23.80;99.90
41294;DHT22;27037;52.010;4.446;2022-08-18T09:32:29;23.90;99.90
41294;DHT22;27037;52.010;4.446;2022-08-18T09:35:17;24.10;99.90
41294;DHT22;27037;52.010;4.446;2022-08-18T09:40:33;24.20;99.90
41294;DHT22;27037;52.010;4.446;2022-08-18T09:44:05;24.30;99.90
41294;DHT22;27037;52.010;4.446;2022-08-18T09:49:44;24.50;99.90
41294;DHT22;27037;52.010;4.446;2022-08-18T09:57:24;24.90;99.90
41294;DHT22;27037;52.010;4.446;2022-08-18T09:59:57;24.90;99.90
41294;DHT22;27037;52.010;4.446;2022-08-18T10:18:25;25.50;99.90
41294;DHT22;27037;52.010;4.446;2022-08-18T10:23:43;25.60;99.90
41294;DHT22;27037;52.010;4.446;2022-08-18T10:28:57;25.40;99.90
41294;DHT22;27037;52.010;4.446;2022-08-18T10:31:23;25.30;99.90
41294;DHT22;27037;52.010;4.446;2022-08-18T10:36:34;25.40;99.90
41294;DHT22;27037;52.010;4.446;2022-08-18T10:39:05;25.50;99.90
41294;DHT22;27037;52.010;4.446;2022-08-18T10:41:32;25.50;99.90
41294;DHT22;27037;52.010;4.446;2022-08-18T10:44:00;25.60;99.90
41294;DHT22;27037;52.010;4.446;2022-08-18T10:46:31;25.80;99.90
41294;DHT22;27037;52.010;4.446;2022-08-18T10:54:36;26.30;99.90
41294;DHT22;27037;52.010;4.446;2022-08-18T10:57:13;26.30;99.90
41294;DHT22;27037;52.010;4.446;2022-08-18T11:05:15;26.30;99.90
41294;DHT22;27037;52.010;4.446;2022-08-18T11:07:45;26.10;99.90
41294;DHT22;27037;52.010;4.446;2022-08-18T11:10:17;26.00;99.90
41294;DHT22;27037;52.010;4.446;2022-08-18T11:18:43;25.70;99.90
41294;DHT22;27037;52.010;4.446;2022-08-18T11:24:08;25.80;99.90
41294;DHT22;27037;52.010;4.446;2022-08-18T11:26:38;25.90;99.90
41294;DHT22;27037;52.010;4.446;2022-08-18T11:29:40;25.90;99.90
41294;DHT22;27037;52.010;4.446;2022-08-18T11:32:19;26.10;99.90
41294;DHT22;27037;52.010;4.446;2022-08-18T11:35:23;26.30;99.90
41294;DHT22;27037;52.010;4.446;2022-08-18T11:37:54;26.30;99.90
41294;DHT22;27037;52.010;4.446;2022-08-18T11:40:39;26.30;99.90
41294;DHT22;27037;52.010;4.446;2022-08-18T11:56:28;27.20;99.80
41294;DHT22;27037;52.010;4.446;2022-08-18T12:01:47;27.00;99.90
41294;DHT22;27037;52.010;4.446;2022-08-18T12:11:58;27.30;98.80
41294;DHT22;27037;52.010;4.446;2022-08-18T12:14:28;27.50;98.70
41294;DHT22;27037;52.010;4.446;2022-08-18T12:16:54;27.60;97.30
41294;DHT22;27037;52.010;4.446;2022-08-18T12:19:21;27.70;96.90
41294;DHT22;27037;52.010;4.446;2022-08-18T12:21:55;27.70;95.70
41294;DHT22;27037;52.010;4.446;2022-08-18T12:24:22;27.70;96.10
41294;DHT22;27037;52.010;4.446;2022-08-18T12:26:49;27.80;96.30
41294;DHT22;27037;52.010;4.446;2022-08-18T12:29:15;27.90;95.70
41294;DHT22;27037;52.010;4.446;2022-08-18T12:31:46;27.80;95.50
41294;DHT22;27037;52.010;4.446;2022-08-18T12:34:12;27.80;95.80
41294;DHT22;27037;52.010;4.446;2022-08-18T12:36:38;27.70;95.60
41294;DHT22;27037;52.010;4.446;2022-08-18T12:39:04;27.60;95.10
41294;DHT22;27037;52.010;4.446;2022-08-18T12:41:30;27.40;94.60
41294;DHT22;27037;52.010;4.446;2022-08-18T12:43:56;27.20;94.50
41294;DHT22;27037;52.010;4.446;2022-08-18T12:46:22;27.10;94.50
41294;DHT22;27037;52.010;4.446;2022-08-18T12:48:48;27.10;94.70
41294;DHT22;27037;52.010;4.446;2022-08-18T12:51:14;27.20;94.90
41294;DHT22;27037;52.010;4.446;2022-08-18T12:53:40;27.30;95.00
41294;DHT22;27037;52.010;4.446;2022-08-18T12:56:20;27.30;93.90
41294;DHT22;27037;52.010;4.446;2022-08-18T12:58:46;27.40;93.90
41294;DHT22;27037;52.010;4.446;2022-08-18T13:01:12;27.60;94.00
41294;DHT22;27037;52.010;4.446;2022-08-18T13:03:38;27.70;93.30
41294;DHT22;27037;52.010;4.446;2022-08-18T13:06:03;27.80;92.90
41294;DHT22;27037;52.010;4.446;2022-08-18T13:08:29;27.80;92.60
41294;DHT22;27037;52.010;4.446;2022-08-18T13:10:55;27.80;92.80
41294;DHT22;27037;52.010;4.446;2022-08-18T13:13:20;27.90;93.00
41294;DHT22;27037;52.010;4.446;2022-08-18T13:15:46;28.00;92.00
41294;DHT22;27037;52.010;4.446;2022-08-18T13:18:12;28.00;92.00
41294;DHT22;27037;52.010;4.446;2022-08-18T13:20:40;28.10;91.90
41294;DHT22;27037;52.010;4.446;2022-08-18T13:23:05;28.40;92.10
41294;DHT22;27037;52.010;4.446;2022-08-18T13:25:31;28.80;91.80
41294;DHT22;27037;52.010;4.446;2022-08-18T13:27:57;29.00;90.90
41294;DHT22;27037;52.010;4.446;2022-08-18T13:30:23;29.10;88.70
41294;DHT22;27037;52.010;4.446;2022-08-18T13:32:49;29.00;89.30
41294;DHT22;27037;52.010;4.446;2022-08-18T13:35:16;28.80;90.30
41294;DHT22;27037;52.010;4.446;2022-08-18T13:37:41;28.60;91.00
41294;DHT22;27037;52.010;4.446;2022-08-18T13:40:08;28.40;91.70
41294;DHT22;27037;52.010;4.446;2022-08-18T13:42:43;28.20;91.90
41294;DHT22;27037;52.010;4.446;2022-08-18T13:45:10;27.90;92.30
41294;DHT22;27037;52.010;4.446;2022-08-18T13:47:36;27.70;92.40
41294;DHT22;27037;52.010;4.446;2022-08-18T13:50:02;27.50;93.00
41294;DHT22;27037;52.010;4.446;2022-08-18T13:52:28;27.30;93.20
41294;DHT22;27037;52.010;4.446;2022-08-18T13:54:54;27.20;93.50
41294;DHT22;27037;52.010;4.446;2022-08-18T13:57:20;27.10;94.00
41294;DHT22;27037;52.010;4.446;2022-08-18T13:59:45;26.80;94.60
41294;DHT22;27037;52.010;4.446;2022-08-18T14:02:11;26.50;95.40
41294;DHT22;27037;52.010;4.446;2022-08-18T14:04:37;26.30;96.10
41294;DHT22;27037;52.010;4.446;2022-08-18T14:07:04;26.10;96.70
41294;DHT22;27037;52.010;4.446;2022-08-18T14:09:30;25.90;96.90
41294;DHT22;27037;52.010;4.446;2022-08-18T14:11:57;25.70;97.50
41294;DHT22;27037;52.010;4.446;2022-08-18T14:14:23;25.60;98.00
41294;DHT22;27037;52.010;4.446;2022-08-18T14:16:49;25.50;98.20
41294;DHT22;27037;52.010;4.446;2022-08-18T14:19:14;25.40;98.40
41294;DHT22;27037;52.010;4.446;2022-08-18T14:21:59;25.20;98.80
41294;DHT22;27037;52.010;4.446;2022-08-18T14:24:43;25.00;99.30
41294;DHT22;27037;52.010;4.446;2022-08-18T14:27:30;25.00;99.80
41294;DHT22;27037;52.010;4.446;2022-08-18T14:29:56;24.90;99.90
41294;DHT22;27037;52.010;4.446;2022-08-18T14:32:23;24.90;99.90
41294;DHT22;27037;52.010;4.446;2022-08-18T14:34:51;25.00;99.90
41294;DHT22;27037;52.010;4.446;2022-08-18T14:37:18;25.20;99.90
41294;DHT22;27037;52.010;4.446;2022-08-18T14:39:44;25.20;99.90
41294;DHT22;27037;52.010;4.446;2022-08-18T14:42:13;25.30;99.90
41294;DHT22;27037;52.010;4.446;2022-08-18T14:44:39;25.30;99.90
41294;DHT22;27037;52.010;4.446;2022-08-18T14:47:04;25.20;99.90
41294;DHT22;27037;52.010;4.446;2022-08-18T14:49:30;25.30;99.90
41294;DHT22;27037;52.010;4.446;2022-08-18T14:51:57;25.40;99.90
41294;DHT22;27037;52.010;4.446;2022-08-18T14:54:23;25.30;99.90
41294;DHT22;27037;52.010;4.446;2022-08-18T14:56:48;25.30;99.90
41294;DHT22;27037;52.010;4.446;2022-08-18T14:59:14;25.30;99.90
41294;DHT22;27037;52.010;4.446;2022-08-18T15:01:40;25.30;99.90
41294;DHT22;27037;52.010;4.446;2022-08-18T15:04:07;25.40;99.90
41294;DHT22;27037;52.010;4.446;2022-08-18T15:06:34;25.40;99.90
41294;DHT22;27037;52.010;4.446;2022-08-18T15:09:00;25.30;99.90
41294;DHT22;27037;52.010;4.446;2022-08-18T15:11:28;25.20;99.90
41294;DHT22;27037;52.010;4.446;2022-08-18T15:13:54;25.10;99.90
41294;DHT22;27037;52.010;4.446;2022-08-18T15:16:21;25.00;99.90
41294;DHT22;27037;52.010;4.446;2022-08-18T15:18:48;25.00;99.90
41294;DHT22;27037;52.010;4.446;2022-08-18T15:21:14;25.00;99.90
41294;DHT22;27037;52.010;4.446;2022-08-18T15:23:58;25.20;99.90
41294;DHT22;27037;52.010;4.446;2022-08-18T15:26:42;25.30;99.90
41294;DHT22;27037;52.010;4.446;2022-08-18T15:29:09;25.50;99.90
41294;DHT22;27037;52.010;4.446;2022-08-18T15:31:36;25.50;99.90
41294;DHT22;27037;52.010;4.446;2022-08-18T15:34:02;25.50;99.90
41294;DHT22;27037;52.010;4.446;2022-08-18T15:36:28;25.70;99.90
41294;DHT22;27037;52.010;4.446;2022-08-18T15:38:59;25.70;99.90
41294;DHT22;27037;52.010;4.446;2022-08-18T15:41:35;25.70;99.90
41294;DHT22;27037;52.010;4.446;2022-08-18T15:44:02;25.70;99.90
41294;DHT22;27037;52.010;4.446;2022-08-18T15:46:31;25.70;99.90
41294;DHT22;27037;52.010;4.446;2022-08-18T15:48:58;25.70;99.90
41294;DHT22;27037;52.010;4.446;2022-08-18T15:51:24;25.70;99.90
41294;DHT22;27037;52.010;4.446;2022-08-18T15:53:50;25.80;99.90
41294;DHT22;27037;52.010;4.446;2022-08-18T15:56:19;25.90;99.90
41294;DHT22;27037;52.010;4.446;2022-08-18T15:58:45;25.80;99.90
41294;DHT22;27037;52.010;4.446;2022-08-18T16:01:11;25.80;99.90
41294;DHT22;27037;52.010;4.446;2022-08-18T16:03:37;25.80;99.90
41294;DHT22;27037;52.010;4.446;2022-08-18T16:06:03;25.80;99.90
41294;DHT22;27037;52.010;4.446;2022-08-18T16:08:29;25.90;99.90
41294;DHT22;27037;52.010;4.446;2022-08-18T16:10:55;26.00;99.90
41294;DHT22;27037;52.010;4.446;2022-08-18T16:13:22;26.00;99.90
41294;DHT22;27037;52.010;4.446;2022-08-18T16:15:48;26.00;99.90
41294;DHT22;27037;52.010;4.446;2022-08-18T16:18:16;26.00;99.60
41294;DHT22;27037;52.010;4.446;2022-08-18T16:20:43;25.90;99.50
41294;DHT22;27037;52.010;4.446;2022-08-18T16:23:10;25.90;99.70
41294;DHT22;27037;52.010;4.446;2022-08-18T16:25:38;25.90;99.50
41294;DHT22;27037;52.010;4.446;2022-08-18T16:28:04;25.90;99.40
41294;DHT22;27037;52.010;4.446;2022-08-18T16:30:30;25.90;99.30
41294;DHT22;27037;52.010;4.446;2022-08-18T16:33:02;25.90;99.30
41294;DHT22;27037;52.010;4.446;2022-08-18T16:35:29;25.90;99.30
41294;DHT22;27037;52.010;4.446;2022-08-18T16:37:55;25.90;99.40
41294;DHT22;27037;52.010;4.446;2022-08-18T16:40:20;25.90;99.30
41294;DHT22;27037;52.010;4.446;2022-08-18T16:42:47;25.90;99.00
41294;DHT22;27037;52.010;4.446;2022-08-18T16:45:13;25.90;99.20
41294;DHT22;27037;52.010;4.446;2022-08-18T16:47:39;25.90;98.90
41294;DHT22;27037;52.010;4.446;2022-08-18T16:50:07;25.80;98.80
41294;DHT22;27037;52.010;4.446;2022-08-18T16:52:34;25.80;98.70
41294;DHT22;27037;52.010;4.446;2022-08-18T16:55:00;25.70;98.70
41294;DHT22;27037;52.010;4.446;2022-08-18T16:57:25;25.60;98.60
41294;DHT22;27037;52.010;4.446;2022-08-18T17:00:10;25.50;98.60
41294;DHT22;27037;52.010;4.446;2022-08-18T17:02:54;25.50;98.80
41294;DHT22;27037;52.010;4.446;2022-08-18T17:05:38;25.50;98.70
41294;DHT22;27037;52.010;4.446;2022-08-18T17:08:04;25.40;98.60
41294;DHT22;27037;52.010;4.446;2022-08-18T17:10:30;25.30;98.40
41294;DHT22;27037;52.010;4.446;2022-08-18T17:13:03;25.20;98.60
41294;DHT22;27037;52.010;4.446;2022-08-18T17:15:29;25.10;98.50
41294;DHT22;27037;52.010;4.446;2022-08-18T17:17:55;25.10;98.70
41294;DHT22;27037;52.010;4.446;2022-08-18T17:20:21;25.00;98.70
41294;DHT22;27037;52.010;4.446;2022-08-18T17:22:47;24.90;98.90
41294;DHT22;27037;52.010;4.446;2022-08-18T17:25:16;24.90;98.90
41294;DHT22;27037;52.010;4.446;2022-08-18T17:27:47;24.90;98.90
41294;DHT22;27037;52.010;4.446;2022-08-18T17:30:16;24.80;99.10
41294;DHT22;27037;52.010;4.446;2022-08-18T17:32:49;24.80;99.00
41294;DHT22;27037;52.010;4.446;2022-08-18T17:35:21;24.80;99.00
41294;DHT22;27037;52.010;4.446;2022-08-18T17:38:19;24.70;99.10
41294;DHT22;27037;52.010;4.446;2022-08-18T17:40:49;24.70;99.30
41294;DHT22;27037;52.010;4.446;2022-08-18T17:43:18;24.80;99.50
41294;DHT22;27037;52.010;4.446;2022-08-18T17:45:51;25.10;99.40
41294;DHT22;27037;52.010;4.446;2022-08-18T17:48:31;25.50;98.60
41294;DHT22;27037;52.010;4.446;2022-08-18T17:51:02;25.90;97.90
41294;DHT22;27037;52.010;4.446;2022-08-18T17:53:46;25.80;97.50
41294;DHT22;27037;52.010;4.446;2022-08-18T17:56:20;25.70;97.50
41294;DHT22;27037;52.010;4.446;2022-08-18T17:58:54;25.50;97.70
41294;DHT22;27037;52.010;4.446;2022-08-18T18:01:23;25.30;98.00
41294;DHT22;27037;52.010;4.446;2022-08-18T18:03:50;25.00;98.70
41294;DHT22;27037;52.010;4.446;2022-08-18T18:11:33;24.40;99.60
41294;DHT22;27037;52.010;4.446;2022-08-18T18:17:19;24.30;99.90
41294;DHT22;27037;52.010;4.446;2022-08-18T18:19:53;24.20;99.90
41294;DHT22;27037;52.010;4.446;2022-08-18T18:22:22;24.10;99.90
41294;DHT22;27037;52.010;4.446;2022-08-18T18:24:58;24.10;99.90
41294;DHT22;27037;52.010;4.446;2022-08-18T18:30:22;23.90;99.90
41294;DHT22;27037;52.010;4.446;2022-08-18T18:32:58;23.80;99.90
41294;DHT22;27037;52.010;4.446;2022-08-18T18:38:32;23.60;99.90
41294;DHT22;27037;52.010;4.446;2022-08-18T18:41:19;23.50;99.90